KVEL/VEL METAR and TAF weather

Enter ICAO airport designator
Station Type Date Time Source
KVEL METAR 2021/03/01 08:53 UTC NOAA

KVEL 010853Z AUTO 27003KT 10SM CLR M08/M13 A3037 RMK AO2 SLP321 T10831133 53012 $


Station Type Date Time Source
KVEL Decoded METAR 2021/03/01 08:53 UTC NOAA

VERNAL AIRPORT, UT, United States (KVEL) 40-26N 109-30W 1604M
Mar 01, 2021 - 03:53 AM EST / 2021.03.01 0853 UTC
Wind: from the W (270 degrees) at 3 MPH (3 KT):0
Visibility: 10 mile(s):0
Sky conditions: clear
Temperature: 17.1 F (-8.3 C)
Dew Point: 8.1 F (-13.3 C)
Relative Humidity: 67%
Pressure (altimeter): 30.37 in. Hg (1028 hPa)
Pressure tendency: 0.04 inches (1.2 hPa) higher than three hours ago
ob: KVEL 010853Z AUTO 27003KT 10SM CLR M08/M13 A3037 RMK AO2 SLP321 T10831133 53012
cycle: 9

Station Type Date Time Source
KVEL TAF 2021/03/01 06:22 UTC NOAA

TAF KVEL 010520Z 0106/0206 32004KT P6SM SKC
FM011600 16003KT P6SM SKC
FM012000 26005KT P6SM SKC

Example: see airport list